sensor_id;sensor_type;location;lat;lon;timestamp;P1;durP1;ratioP1;P2;durP2;ratioP2
21519;SDS011;10921;53.614;9.882;2023-06-26T00:01:03;23.50;;;21.08;;
21519;SDS011;10921;53.614;9.882;2023-06-26T00:03:31;22.65;;;20.52;;
21519;SDS011;10921;53.614;9.882;2023-06-26T00:05:59;23.95;;;21.67;;
21519;SDS011;10921;53.614;9.882;2023-06-26T00:08:27;24.23;;;21.90;;
21519;SDS011;10921;53.614;9.882;2023-06-26T00:10:55;24.70;;;22.10;;
21519;SDS011;10921;53.614;9.882;2023-06-26T00:13:22;27.55;;;22.10;;
21519;SDS011;10921;53.614;9.882;2023-06-26T00:15:49;23.73;;;21.60;;
21519;SDS011;10921;53.614;9.882;2023-06-26T00:18:16;24.48;;;21.90;;
21519;SDS011;10921;53.614;9.882;2023-06-26T00:20:43;25.42;;;22.73;;
21519;SDS011;10921;53.614;9.882;2023-06-26T00:23:11;23.45;;;21.00;;
21519;SDS011;10921;53.614;9.882;2023-06-26T00:25:39;24.65;;;22.10;;
21519;SDS011;10921;53.614;9.882;2023-06-26T00:28:06;24.88;;;22.35;;
21519;SDS011;10921;53.614;9.882;2023-06-26T00:30:32;24.67;;;22.10;;
21519;SDS011;10921;53.614;9.882;2023-06-26T00:32:59;25.13;;;22.73;;
21519;SDS011;10921;53.614;9.882;2023-06-26T00:35:26;25.05;;;22.42;;
21519;SDS011;10921;53.614;9.882;2023-06-26T00:37:52;24.83;;;22.27;;
21519;SDS011;10921;53.614;9.882;2023-06-26T00:40:19;24.75;;;21.95;;
21519;SDS011;10921;53.614;9.882;2023-06-26T00:42:45;22.48;;;20.38;;
21519;SDS011;10921;53.614;9.882;2023-06-26T00:45:12;23.65;;;21.45;;
21519;SDS011;10921;53.614;9.882;2023-06-26T00:47:38;25.63;;;23.23;;
21519;SDS011;10921;53.614;9.882;2023-06-26T00:50:05;24.30;;;21.90;;
21519;SDS011;10921;53.614;9.882;2023-06-26T00:52:32;25.08;;;22.63;;
21519;SDS011;10921;53.614;9.882;2023-06-26T00:54:59;24.75;;;22.10;;
21519;SDS011;10921;53.614;9.882;2023-06-26T00:57:26;24.73;;;22.33;;
21519;SDS011;10921;53.614;9.882;2023-06-26T00:59:53;24.83;;;22.42;;
21519;SDS011;10921;53.614;9.882;2023-06-26T01:02:20;24.58;;;22.10;;
21519;SDS011;10921;53.614;9.882;2023-06-26T01:04:47;25.67;;;23.15;;
21519;SDS011;10921;53.614;9.882;2023-06-26T01:07:15;24.42;;;22.02;;
21519;SDS011;10921;53.614;9.882;2023-06-26T01:09:48;24.60;;;22.42;;
21519;SDS011;10921;53.614;9.882;2023-06-26T01:14:41;25.20;;;22.42;;
21519;SDS011;10921;53.614;9.882;2023-06-26T01:17:08;24.55;;;22.10;;
21519;SDS011;10921;53.614;9.882;2023-06-26T01:19:39;25.50;;;23.08;;
21519;SDS011;10921;53.614;9.882;2023-06-26T01:22:23;24.15;;;21.88;;
21519;SDS011;10921;53.614;9.882;2023-06-26T01:25:28;25.70;;;22.90;;
21519;SDS011;10921;53.614;9.882;2023-06-26T01:28:05;23.50;;;21.38;;
21519;SDS011;10921;53.614;9.882;2023-06-26T01:30:32;24.67;;;22.30;;
21519;SDS011;10921;53.614;9.882;2023-06-26T01:33:03;25.23;;;22.60;;
21519;SDS011;10921;53.614;9.882;2023-06-26T01:35:32;25.67;;;23.23;;
21519;SDS011;10921;53.614;9.882;2023-06-26T01:38:21;25.08;;;22.67;;
21519;SDS011;10921;53.614;9.882;2023-06-26T01:40:52;26.05;;;23.52;;
21519;SDS011;10921;53.614;9.882;2023-06-26T01:46:16;25.48;;;22.73;;
21519;SDS011;10921;53.614;9.882;2023-06-26T01:48:46;24.67;;;22.17;;
21519;SDS011;10921;53.614;9.882;2023-06-26T01:51:30;22.67;;;20.58;;
21519;SDS011;10921;53.614;9.882;2023-06-26T01:53:59;24.45;;;22.05;;
21519;SDS011;10921;53.614;9.882;2023-06-26T01:56:28;24.90;;;22.30;;
21519;SDS011;10921;53.614;9.882;2023-06-26T01:58:55;22.60;;;20.42;;
21519;SDS011;10921;53.614;9.882;2023-06-26T02:01:22;24.88;;;22.55;;
21519;SDS011;10921;53.614;9.882;2023-06-26T02:03:50;24.42;;;22.00;;
21519;SDS011;10921;53.614;9.882;2023-06-26T02:06:16;24.30;;;21.83;;
21519;SDS011;10921;53.614;9.882;2023-06-26T02:08:43;24.80;;;22.17;;
21519;SDS011;10921;53.614;9.882;2023-06-26T02:11:09;23.27;;;21.00;;
21519;SDS011;10921;53.614;9.882;2023-06-26T02:13:36;25.30;;;22.77;;
21519;SDS011;10921;53.614;9.882;2023-06-26T02:16:03;24.83;;;22.27;;
21519;SDS011;10921;53.614;9.882;2023-06-26T02:18:29;24.90;;;22.13;;
21519;SDS011;10921;53.614;9.882;2023-06-26T02:20:56;24.23;;;21.90;;
21519;SDS011;10921;53.614;9.882;2023-06-26T02:23:22;25.65;;;23.23;;
21519;SDS011;10921;53.614;9.882;2023-06-26T02:25:49;26.13;;;22.85;;
21519;SDS011;10921;53.614;9.882;2023-06-26T02:28:15;25.90;;;23.23;;
21519;SDS011;10921;53.614;9.882;2023-06-26T02:30:42;24.50;;;22.08;;
21519;SDS011;10921;53.614;9.882;2023-06-26T02:33:08;25.75;;;23.27;;
21519;SDS011;10921;53.614;9.882;2023-06-26T02:35:35;25.77;;;22.52;;
21519;SDS011;10921;53.614;9.882;2023-06-26T02:38:02;25.13;;;22.88;;
21519;SDS011;10921;53.614;9.882;2023-06-26T02:40:28;24.50;;;21.75;;
21519;SDS011;10921;53.614;9.882;2023-06-26T02:42:55;25.63;;;23.10;;
21519;SDS011;10921;53.614;9.882;2023-06-26T02:45:21;25.20;;;22.77;;
21519;SDS011;10921;53.614;9.882;2023-06-26T02:47:48;25.15;;;22.65;;
21519;SDS011;10921;53.614;9.882;2023-06-26T02:50:14;26.63;;;23.95;;
21519;SDS011;10921;53.614;9.882;2023-06-26T02:52:41;24.85;;;22.30;;
21519;SDS011;10921;53.614;9.882;2023-06-26T02:55:07;24.45;;;21.92;;
21519;SDS011;10921;53.614;9.882;2023-06-26T02:57:34;24.13;;;21.83;;
21519;SDS011;10921;53.614;9.882;2023-06-26T03:00:00;25.10;;;22.58;;
21519;SDS011;10921;53.614;9.882;2023-06-26T03:02:27;24.00;;;21.73;;
21519;SDS011;10921;53.614;9.882;2023-06-26T03:04:53;24.52;;;22.10;;
21519;SDS011;10921;53.614;9.882;2023-06-26T03:07:23;25.85;;;22.70;;
21519;SDS011;10921;53.614;9.882;2023-06-26T03:12:16;23.60;;;21.05;;
21519;SDS011;10921;53.614;9.882;2023-06-26T03:14:43;23.67;;;21.25;;
21519;SDS011;10921;53.614;9.882;2023-06-26T03:17:12;24.75;;;22.45;;
21519;SDS011;10921;53.614;9.882;2023-06-26T03:19:39;25.70;;;23.25;;
21519;SDS011;10921;53.614;9.882;2023-06-26T03:22:05;24.45;;;22.23;;
21519;SDS011;10921;53.614;9.882;2023-06-26T03:24:32;24.05;;;21.60;;
21519;SDS011;10921;53.614;9.882;2023-06-26T03:26:59;23.48;;;21.08;;
21519;SDS011;10921;53.614;9.882;2023-06-26T03:29:26;24.65;;;22.02;;
21519;SDS011;10921;53.614;9.882;2023-06-26T03:31:53;26.30;;;23.10;;
21519;SDS011;10921;53.614;9.882;2023-06-26T03:34:19;24.80;;;22.27;;
21519;SDS011;10921;53.614;9.882;2023-06-26T03:36:46;23.77;;;21.58;;
21519;SDS011;10921;53.614;9.882;2023-06-26T03:39:12;23.70;;;21.25;;
21519;SDS011;10921;53.614;9.882;2023-06-26T03:41:39;23.95;;;21.73;;
21519;SDS011;10921;53.614;9.882;2023-06-26T03:44:06;24.88;;;22.30;;
21519;SDS011;10921;53.614;9.882;2023-06-26T03:46:32;23.88;;;21.23;;
21519;SDS011;10921;53.614;9.882;2023-06-26T03:48:59;24.17;;;21.67;;
21519;SDS011;10921;53.614;9.882;2023-06-26T03:51:25;24.20;;;21.70;;
21519;SDS011;10921;53.614;9.882;2023-06-26T03:53:52;23.95;;;21.55;;
21519;SDS011;10921;53.614;9.882;2023-06-26T03:56:18;22.88;;;20.63;;
21519;SDS011;10921;53.614;9.882;2023-06-26T03:58:45;23.17;;;20.67;;
21519;SDS011;10921;53.614;9.882;2023-06-26T04:01:12;23.15;;;20.70;;
21519;SDS011;10921;53.614;9.882;2023-06-26T04:03:38;23.20;;;20.75;;
21519;SDS011;10921;53.614;9.882;2023-06-26T04:06:05;23.52;;;21.27;;
21519;SDS011;10921;53.614;9.882;2023-06-26T04:08:32;23.40;;;20.98;;
21519;SDS011;10921;53.614;9.882;2023-06-26T04:10:59;22.85;;;20.33;;
21519;SDS011;10921;53.614;9.882;2023-06-26T04:13:26;21.80;;;19.80;;
21519;SDS011;10921;53.614;9.882;2023-06-26T04:15:52;21.00;;;19.10;;
21519;SDS011;10921;53.614;9.882;2023-06-26T04:18:19;21.27;;;19.13;;
21519;SDS011;10921;53.614;9.882;2023-06-26T04:23:34;21.50;;;19.55;;
21519;SDS011;10921;53.614;9.882;2023-06-26T04:26:01;23.00;;;19.38;;
21519;SDS011;10921;53.614;9.882;2023-06-26T04:28:29;21.17;;;18.35;;
21519;SDS011;10921;53.614;9.882;2023-06-26T04:30:55;21.55;;;19.35;;
21519;SDS011;10921;53.614;9.882;2023-06-26T04:33:22;21.33;;;18.92;;
21519;SDS011;10921;53.614;9.882;2023-06-26T04:35:49;21.73;;;18.92;;
21519;SDS011;10921;53.614;9.882;2023-06-26T04:38:16;23.05;;;19.63;;
21519;SDS011;10921;53.614;9.882;2023-06-26T04:40:42;19.60;;;17.80;;
21519;SDS011;10921;53.614;9.882;2023-06-26T04:43:09;20.40;;;18.40;;
21519;SDS011;10921;53.614;9.882;2023-06-26T04:45:35;20.40;;;18.27;;
21519;SDS011;10921;53.614;9.882;2023-06-26T04:48:02;21.35;;;19.10;;
21519;SDS011;10921;53.614;9.882;2023-06-26T04:50:30;19.88;;;17.90;;
21519;SDS011;10921;53.614;9.882;2023-06-26T04:52:57;20.17;;;18.05;;
21519;SDS011;10921;53.614;9.882;2023-06-26T04:55:24;23.63;;;17.63;;
21519;SDS011;10921;53.614;9.882;2023-06-26T04:57:51;20.35;;;18.30;;
21519;SDS011;10921;53.614;9.882;2023-06-26T05:00:18;20.17;;;18.08;;
21519;SDS011;10921;53.614;9.882;2023-06-26T05:02:44;23.48;;;18.77;;
21519;SDS011;10921;53.614;9.882;2023-06-26T05:05:11;26.58;;;19.00;;
21519;SDS011;10921;53.614;9.882;2023-06-26T05:07:38;22.05;;;18.60;;
21519;SDS011;10921;53.614;9.882;2023-06-26T05:10:07;22.58;;;19.38;;
21519;SDS011;10921;53.614;9.882;2023-06-26T05:12:34;23.52;;;18.92;;
21519;SDS011;10921;53.614;9.882;2023-06-26T05:15:01;22.10;;;19.33;;
21519;SDS011;10921;53.614;9.882;2023-06-26T05:17:27;28.52;;;19.63;;
21519;SDS011;10921;53.614;9.882;2023-06-26T05:19:54;27.58;;;18.52;;
21519;SDS011;10921;53.614;9.882;2023-06-26T05:22:20;20.05;;;17.50;;
21519;SDS011;10921;53.614;9.882;2023-06-26T05:24:47;22.33;;;18.70;;
21519;SDS011;10921;53.614;9.882;2023-06-26T05:27:14;23.92;;;18.65;;
21519;SDS011;10921;53.614;9.882;2023-06-26T05:29:48;20.88;;;17.23;;
21519;SDS011;10921;53.614;9.882;2023-06-26T05:32:15;25.75;;;19.15;;
21519;SDS011;10921;53.614;9.882;2023-06-26T05:34:49;23.33;;;18.00;;
21519;SDS011;10921;53.614;9.882;2023-06-26T05:37:19;21.17;;;18.23;;
21519;SDS011;10921;53.614;9.882;2023-06-26T05:39:47;26.95;;;18.25;;
21519;SDS011;10921;53.614;9.882;2023-06-26T05:42:14;25.40;;;18.23;;
21519;SDS011;10921;53.614;9.882;2023-06-26T05:44:41;20.05;;;17.67;;
21519;SDS011;10921;53.614;9.882;2023-06-26T05:47:07;20.70;;;17.75;;
21519;SDS011;10921;53.614;9.882;2023-06-26T05:49:34;23.80;;;18.40;;
21519;SDS011;10921;53.614;9.882;2023-06-26T05:52:01;20.00;;;17.98;;
21519;SDS011;10921;53.614;9.882;2023-06-26T05:54:28;19.75;;;17.67;;
21519;SDS011;10921;53.614;9.882;2023-06-26T05:56:56;22.52;;;18.02;;
21519;SDS011;10921;53.614;9.882;2023-06-26T05:59:25;19.25;;;17.23;;
21519;SDS011;10921;53.614;9.882;2023-06-26T06:01:53;23.77;;;17.80;;
21519;SDS011;10921;53.614;9.882;2023-06-26T06:04:19;20.65;;;17.15;;
21519;SDS011;10921;53.614;9.882;2023-06-26T06:06:46;18.88;;;16.42;;
21519;SDS011;10921;53.614;9.882;2023-06-26T06:09:13;18.92;;;16.90;;
21519;SDS011;10921;53.614;9.882;2023-06-26T06:11:40;18.17;;;16.58;;
21519;SDS011;10921;53.614;9.882;2023-06-26T06:14:07;18.17;;;16.42;;
21519;SDS011;10921;53.614;9.882;2023-06-26T06:16:33;21.73;;;17.42;;
21519;SDS011;10921;53.614;9.882;2023-06-26T06:19:00;17.60;;;15.95;;
21519;SDS011;10921;53.614;9.882;2023-06-26T06:21:26;19.30;;;17.25;;
21519;SDS011;10921;53.614;9.882;2023-06-26T06:23:53;18.80;;;16.95;;
21519;SDS011;10921;53.614;9.882;2023-06-26T06:26:19;17.70;;;15.90;;
21519;SDS011;10921;53.614;9.882;2023-06-26T06:28:46;17.63;;;15.98;;
21519;SDS011;10921;53.614;9.882;2023-06-26T06:31:12;21.00;;;17.50;;
21519;SDS011;10921;53.614;9.882;2023-06-26T06:33:39;19.88;;;17.83;;
21519;SDS011;10921;53.614;9.882;2023-06-26T06:36:05;18.30;;;16.33;;
21519;SDS011;10921;53.614;9.882;2023-06-26T06:38:32;19.63;;;16.48;;
21519;SDS011;10921;53.614;9.882;2023-06-26T06:40:59;19.17;;;16.63;;
21519;SDS011;10921;53.614;9.882;2023-06-26T06:43:26;17.83;;;16.02;;
21519;SDS011;10921;53.614;9.882;2023-06-26T06:45:52;23.02;;;16.73;;
21519;SDS011;10921;53.614;9.882;2023-06-26T06:48:19;16.55;;;14.95;;
21519;SDS011;10921;53.614;9.882;2023-06-26T06:50:45;17.27;;;15.52;;
21519;SDS011;10921;53.614;9.882;2023-06-26T06:53:12;17.17;;;15.57;;
21519;SDS011;10921;53.614;9.882;2023-06-26T06:55:39;18.50;;;15.73;;
21519;SDS011;10921;53.614;9.882;2023-06-26T06:58:05;17.98;;;15.82;;
21519;SDS011;10921;53.614;9.882;2023-06-26T07:00:32;23.30;;;15.27;;
21519;SDS011;10921;53.614;9.882;2023-06-26T07:02:59;18.50;;;16.08;;
21519;SDS011;10921;53.614;9.882;2023-06-26T07:05:26;17.25;;;15.50;;
21519;SDS011;10921;53.614;9.882;2023-06-26T07:07:53;18.65;;;15.80;;
21519;SDS011;10921;53.614;9.882;2023-06-26T07:10:19;16.02;;;14.57;;
21519;SDS011;10921;53.614;9.882;2023-06-26T07:12:46;17.25;;;15.45;;
21519;SDS011;10921;53.614;9.882;2023-06-26T07:15:13;19.85;;;15.35;;
21519;SDS011;10921;53.614;9.882;2023-06-26T07:17:39;17.20;;;15.40;;
21519;SDS011;10921;53.614;9.882;2023-06-26T07:20:06;18.23;;;15.60;;
21519;SDS011;10921;53.614;9.882;2023-06-26T07:22:34;19.80;;;15.68;;
21519;SDS011;10921;53.614;9.882;2023-06-26T07:25:02;19.05;;;15.38;;
21519;SDS011;10921;53.614;9.882;2023-06-26T07:27:30;18.10;;;16.30;;
21519;SDS011;10921;53.614;9.882;2023-06-26T07:29:57;16.40;;;14.25;;
21519;SDS011;10921;53.614;9.882;2023-06-26T07:32:23;15.93;;;14.43;;
21519;SDS011;10921;53.614;9.882;2023-06-26T07:34:49;15.90;;;14.45;;
21519;SDS011;10921;53.614;9.882;2023-06-26T07:37:16;16.65;;;14.95;;
21519;SDS011;10921;53.614;9.882;2023-06-26T07:39:43;16.20;;;14.77;;
21519;SDS011;10921;53.614;9.882;2023-06-26T07:42:09;16.40;;;14.77;;
21519;SDS011;10921;53.614;9.882;2023-06-26T07:44:36;16.20;;;14.18;;
21519;SDS011;10921;53.614;9.882;2023-06-26T07:47:02;15.77;;;13.95;;
21519;SDS011;10921;53.614;9.882;2023-06-26T07:49:30;16.65;;;14.55;;
21519;SDS011;10921;53.614;9.882;2023-06-26T07:51:56;16.10;;;13.95;;
21519;SDS011;10921;53.614;9.882;2023-06-26T07:54:23;15.43;;;14.02;;
21519;SDS011;10921;53.614;9.882;2023-06-26T07:56:53;14.95;;;13.55;;
21519;SDS011;10921;53.614;9.882;2023-06-26T07:59:23;16.42;;;14.48;;
21519;SDS011;10921;53.614;9.882;2023-06-26T08:01:52;15.52;;;13.93;;
21519;SDS011;10921;53.614;9.882;2023-06-26T08:04:20;14.95;;;13.57;;
21519;SDS011;10921;53.614;9.882;2023-06-26T08:06:48;15.93;;;14.43;;
21519;SDS011;10921;53.614;9.882;2023-06-26T08:09:16;15.20;;;13.82;;
21519;SDS011;10921;53.614;9.882;2023-06-26T08:11:44;15.20;;;14.00;;
21519;SDS011;10921;53.614;9.882;2023-06-26T08:14:11;15.57;;;14.10;;
21519;SDS011;10921;53.614;9.882;2023-06-26T08:16:40;15.38;;;13.88;;
21519;SDS011;10921;53.614;9.882;2023-06-26T08:19:10;16.25;;;14.70;;
21519;SDS011;10921;53.614;9.882;2023-06-26T08:21:37;16.55;;;14.70;;
21519;SDS011;10921;53.614;9.882;2023-06-26T08:24:04;15.52;;;14.02;;
21519;SDS011;10921;53.614;9.882;2023-06-26T08:26:34;15.27;;;14.00;;
21519;SDS011;10921;53.614;9.882;2023-06-26T08:29:01;16.40;;;14.77;;
21519;SDS011;10921;53.614;9.882;2023-06-26T08:31:38;19.65;;;17.95;;
21519;SDS011;10921;53.614;9.882;2023-06-26T08:34:06;19.77;;;18.00;;
21519;SDS011;10921;53.614;9.882;2023-06-26T08:36:33;18.90;;;17.10;;
21519;SDS011;10921;53.614;9.882;2023-06-26T08:39:00;18.80;;;17.20;;
21519;SDS011;10921;53.614;9.882;2023-06-26T08:41:26;18.30;;;16.42;;
21519;SDS011;10921;53.614;9.882;2023-06-26T08:43:53;19.13;;;17.30;;
21519;SDS011;10921;53.614;9.882;2023-06-26T08:46:20;19.00;;;17.00;;
21519;SDS011;10921;53.614;9.882;2023-06-26T08:48:54;18.75;;;17.23;;
21519;SDS011;10921;53.614;9.882;2023-06-26T08:51:23;20.92;;;19.00;;
21519;SDS011;10921;53.614;9.882;2023-06-26T08:53:56;22.10;;;20.02;;
21519;SDS011;10921;53.614;9.882;2023-06-26T08:56:25;19.67;;;17.85;;
21519;SDS011;10921;53.614;9.882;2023-06-26T08:58:55;21.05;;;19.02;;
21519;SDS011;10921;53.614;9.882;2023-06-26T09:01:22;22.33;;;20.23;;
21519;SDS011;10921;53.614;9.882;2023-06-26T09:03:50;23.50;;;21.23;;
21519;SDS011;10921;53.614;9.882;2023-06-26T09:06:17;22.63;;;20.42;;
21519;SDS011;10921;53.614;9.882;2023-06-26T09:08:44;24.25;;;21.77;;
21519;SDS011;10921;53.614;9.882;2023-06-26T09:11:11;20.77;;;18.90;;
21519;SDS011;10921;53.614;9.882;2023-06-26T09:13:38;23.20;;;21.00;;
21519;SDS011;10921;53.614;9.882;2023-06-26T09:16:06;25.25;;;22.73;;
21519;SDS011;10921;53.614;9.882;2023-06-26T09:18:34;23.10;;;20.60;;
21519;SDS011;10921;53.614;9.882;2023-06-26T09:21:07;23.95;;;20.95;;
21519;SDS011;10921;53.614;9.882;2023-06-26T09:23:35;22.25;;;20.40;;
21519;SDS011;10921;53.614;9.882;2023-06-26T09:26:03;21.42;;;19.20;;
21519;SDS011;10921;53.614;9.882;2023-06-26T09:28:32;21.27;;;18.35;;
21519;SDS011;10921;53.614;9.882;2023-06-26T09:31:03;21.08;;;18.02;;
21519;SDS011;10921;53.614;9.882;2023-06-26T09:33:37;24.30;;;19.75;;
21519;SDS011;10921;53.614;9.882;2023-06-26T09:36:05;21.98;;;19.73;;
21519;SDS011;10921;53.614;9.882;2023-06-26T09:38:44;29.25;;;20.27;;
21519;SDS011;10921;53.614;9.882;2023-06-26T09:41:11;28.23;;;21.55;;
21519;SDS011;10921;53.614;9.882;2023-06-26T09:43:47;24.17;;;21.75;;
21519;SDS011;10921;53.614;9.882;2023-06-26T09:46:24;26.17;;;23.42;;
21519;SDS011;10921;53.614;9.882;2023-06-26T09:49:01;22.98;;;20.25;;
21519;SDS011;10921;53.614;9.882;2023-06-26T09:51:34;27.65;;;21.63;;
21519;SDS011;10921;53.614;9.882;2023-06-26T09:54:02;23.50;;;21.30;;
21519;SDS011;10921;53.614;9.882;2023-06-26T09:56:29;25.65;;;22.90;;
21519;SDS011;10921;53.614;9.882;2023-06-26T09:58:57;28.52;;;22.60;;
21519;SDS011;10921;53.614;9.882;2023-06-26T10:01:28;23.40;;;21.17;;
21519;SDS011;10921;53.614;9.882;2023-06-26T10:03:56;25.75;;;21.77;;
21519;SDS011;10921;53.614;9.882;2023-06-26T10:06:37;25.73;;;22.98;;
21519;SDS011;10921;53.614;9.882;2023-06-26T10:09:07;31.25;;;23.55;;
21519;SDS011;10921;53.614;9.882;2023-06-26T10:11:37;29.90;;;25.13;;
21519;SDS011;10921;53.614;9.882;2023-06-26T10:14:07;32.00;;;28.75;;
21519;SDS011;10921;53.614;9.882;2023-06-26T10:16:44;38.72;;;34.67;;
21519;SDS011;10921;53.614;9.882;2023-06-26T10:19:12;36.35;;;32.60;;
21519;SDS011;10921;53.614;9.882;2023-06-26T10:21:40;37.22;;;32.42;;
21519;SDS011;10921;53.614;9.882;2023-06-26T10:24:07;38.80;;;34.45;;
21519;SDS011;10921;53.614;9.882;2023-06-26T10:26:38;39.22;;;35.42;;
21519;SDS011;10921;53.614;9.882;2023-06-26T10:29:10;40.20;;;36.22;;
21519;SDS011;10921;53.614;9.882;2023-06-26T10:31:40;40.50;;;36.38;;
21519;SDS011;10921;53.614;9.882;2023-06-26T10:34:11;40.47;;;36.22;;
21519;SDS011;10921;53.614;9.882;2023-06-26T10:36:40;39.75;;;35.90;;
21519;SDS011;10921;53.614;9.882;2023-06-26T10:39:07;39.67;;;35.90;;
21519;SDS011;10921;53.614;9.882;2023-06-26T10:41:37;41.17;;;37.03;;
21519;SDS011;10921;53.614;9.882;2023-06-26T10:44:26;42.10;;;37.92;;
21519;SDS011;10921;53.614;9.882;2023-06-26T10:46:53;41.30;;;37.15;;
21519;SDS011;10921;53.614;9.882;2023-06-26T10:49:25;41.53;;;37.33;;
21519;SDS011;10921;53.614;9.882;2023-06-26T10:51:54;42.15;;;37.60;;
21519;SDS011;10921;53.614;9.882;2023-06-26T10:54:27;46.20;;;41.30;;
21519;SDS011;10921;53.614;9.882;2023-06-26T10:59:25;41.63;;;37.67;;
21519;SDS011;10921;53.614;9.882;2023-06-26T11:07:23;36.45;;;32.58;;
21519;SDS011;10921;53.614;9.882;2023-06-26T11:12:34;29.50;;;26.38;;
21519;SDS011;10921;53.614;9.882;2023-06-26T11:15:16;24.30;;;21.83;;
21519;SDS011;10921;53.614;9.882;2023-06-26T11:17:45;25.83;;;21.02;;
21519;SDS011;10921;53.614;9.882;2023-06-26T11:20:13;28.23;;;20.50;;
21519;SDS011;10921;53.614;9.882;2023-06-26T11:22:42;30.33;;;22.42;;
21519;SDS011;10921;53.614;9.882;2023-06-26T11:25:09;21.48;;;18.77;;
21519;SDS011;10921;53.614;9.882;2023-06-26T11:30:03;29.05;;;18.25;;
21519;SDS011;10921;53.614;9.882;2023-06-26T11:32:34;23.85;;;17.25;;
21519;SDS011;10921;53.614;9.882;2023-06-26T11:35:02;23.33;;;18.38;;
21519;SDS011;10921;53.614;9.882;2023-06-26T11:37:34;26.15;;;17.88;;
21519;SDS011;10921;53.614;9.882;2023-06-26T11:40:15;18.27;;;15.15;;
21519;SDS011;10921;53.614;9.882;2023-06-26T11:42:42;23.33;;;15.05;;
21519;SDS011;10921;53.614;9.882;2023-06-26T11:45:10;17.90;;;16.02;;
21519;SDS011;10921;53.614;9.882;2023-06-26T11:47:38;17.40;;;14.63;;
21519;SDS011;10921;53.614;9.882;2023-06-26T11:50:05;17.83;;;14.30;;
21519;SDS011;10921;53.614;9.882;2023-06-26T11:52:32;22.40;;;13.82;;
21519;SDS011;10921;53.614;9.882;2023-06-26T11:54:59;14.18;;;12.75;;
21519;SDS011;10921;53.614;9.882;2023-06-26T11:57:25;17.13;;;14.50;;
21519;SDS011;10921;53.614;9.882;2023-06-26T11:59:52;21.75;;;12.50;;
21519;SDS011;10921;53.614;9.882;2023-06-26T12:02:18;17.67;;;13.05;;
21519;SDS011;10921;53.614;9.882;2023-06-26T12:04:47;20.58;;;14.50;;
21519;SDS011;10921;53.614;9.882;2023-06-26T12:07:14;18.20;;;14.32;;
21519;SDS011;10921;53.614;9.882;2023-06-26T12:09:42;22.35;;;14.45;;
21519;SDS011;10921;53.614;9.882;2023-06-26T12:12:10;22.23;;;15.05;;
21519;SDS011;10921;53.614;9.882;2023-06-26T12:14:40;21.45;;;14.70;;
21519;SDS011;10921;53.614;9.882;2023-06-26T12:17:11;22.58;;;14.10;;
21519;SDS011;10921;53.614;9.882;2023-06-26T12:19:39;18.52;;;14.93;;
21519;SDS011;10921;53.614;9.882;2023-06-26T12:22:09;21.63;;;16.58;;
21519;SDS011;10921;53.614;9.882;2023-06-26T12:24:37;18.52;;;15.20;;
21519;SDS011;10921;53.614;9.882;2023-06-26T12:27:08;18.85;;;13.50;;
21519;SDS011;10921;53.614;9.882;2023-06-26T12:29:37;16.63;;;12.90;;
21519;SDS011;10921;53.614;9.882;2023-06-26T12:32:07;22.38;;;14.65;;
21519;SDS011;10921;53.614;9.882;2023-06-26T12:34:36;18.27;;;14.65;;
21519;SDS011;10921;53.614;9.882;2023-06-26T12:37:04;19.95;;;14.07;;
21519;SDS011;10921;53.614;9.882;2023-06-26T12:42:25;16.42;;;14.20;;
21519;SDS011;10921;53.614;9.882;2023-06-26T12:44:53;18.23;;;13.50;;
21519;SDS011;10921;53.614;9.882;2023-06-26T12:47:24;13.73;;;12.15;;
21519;SDS011;10921;53.614;9.882;2023-06-26T12:49:53;15.93;;;12.27;;
21519;SDS011;10921;53.614;9.882;2023-06-26T12:52:20;15.32;;;13.80;;
21519;SDS011;10921;53.614;9.882;2023-06-26T12:54:51;13.48;;;12.20;;
21519;SDS011;10921;53.614;9.882;2023-06-26T12:57:19;13.48;;;12.18;;
21519;SDS011;10921;53.614;9.882;2023-06-26T12:59:46;13.60;;;12.30;;
21519;SDS011;10921;53.614;9.882;2023-06-26T13:02:12;12.45;;;11.48;;
21519;SDS011;10921;53.614;9.882;2023-06-26T13:04:39;21.73;;;12.93;;
21519;SDS011;10921;53.614;9.882;2023-06-26T13:07:07;14.75;;;13.10;;
21519;SDS011;10921;53.614;9.882;2023-06-26T13:09:35;17.02;;;12.50;;
21519;SDS011;10921;53.614;9.882;2023-06-26T13:12:03;16.95;;;12.10;;
21519;SDS011;10921;53.614;9.882;2023-06-26T13:14:31;15.63;;;13.05;;
21519;SDS011;10921;53.614;9.882;2023-06-26T13:16:57;15.80;;;14.07;;
21519;SDS011;10921;53.614;9.882;2023-06-26T13:19:24;15.25;;;13.65;;
21519;SDS011;10921;53.614;9.882;2023-06-26T13:21:50;16.02;;;14.32;;
21519;SDS011;10921;53.614;9.882;2023-06-26T13:24:17;15.70;;;12.20;;
21519;SDS011;10921;53.614;9.882;2023-06-26T13:26:44;15.73;;;13.93;;
21519;SDS011;10921;53.614;9.882;2023-06-26T13:29:10;17.50;;;14.40;;
21519;SDS011;10921;53.614;9.882;2023-06-26T13:31:37;16.88;;;11.98;;
21519;SDS011;10921;53.614;9.882;2023-06-26T13:34:05;17.05;;;13.25;;
21519;SDS011;10921;53.614;9.882;2023-06-26T13:36:31;13.85;;;12.43;;
21519;SDS011;10921;53.614;9.882;2023-06-26T13:39:00;15.30;;;13.80;;
21519;SDS011;10921;53.614;9.882;2023-06-26T13:41:27;15.23;;;13.30;;
21519;SDS011;10921;53.614;9.882;2023-06-26T13:43:55;14.27;;;12.90;;
21519;SDS011;10921;53.614;9.882;2023-06-26T13:46:33;14.15;;;12.80;;
21519;SDS011;10921;53.614;9.882;2023-06-26T13:48:59;14.85;;;13.45;;
21519;SDS011;10921;53.614;9.882;2023-06-26T13:51:26;13.25;;;11.98;;
21519;SDS011;10921;53.614;9.882;2023-06-26T13:53:52;13.52;;;12.20;;
21519;SDS011;10921;53.614;9.882;2023-06-26T13:56:20;16.67;;;15.13;;
21519;SDS011;10921;53.614;9.882;2023-06-26T13:58:48;15.77;;;14.40;;
21519;SDS011;10921;53.614;9.882;2023-06-26T14:01:15;14.18;;;12.98;;
21519;SDS011;10921;53.614;9.882;2023-06-26T14:03:42;16.25;;;14.80;;
21519;SDS011;10921;53.614;9.882;2023-06-26T14:06:09;14.75;;;13.52;;
21519;SDS011;10921;53.614;9.882;2023-06-26T14:08:35;15.07;;;13.68;;
21519;SDS011;10921;53.614;9.882;2023-06-26T14:11:02;13.63;;;12.32;;
21519;SDS011;10921;53.614;9.882;2023-06-26T14:13:28;13.27;;;11.98;;
21519;SDS011;10921;53.614;9.882;2023-06-26T14:15:55;13.57;;;11.90;;
21519;SDS011;10921;53.614;9.882;2023-06-26T14:18:22;16.00;;;14.30;;
21519;SDS011;10921;53.614;9.882;2023-06-26T14:20:50;13.80;;;12.60;;
21519;SDS011;10921;53.614;9.882;2023-06-26T14:23:17;13.45;;;12.20;;
21519;SDS011;10921;53.614;9.882;2023-06-26T14:25:43;13.43;;;12.20;;
21519;SDS011;10921;53.614;9.882;2023-06-26T14:28:14;14.95;;;13.48;;
21519;SDS011;10921;53.614;9.882;2023-06-26T14:30:41;16.25;;;14.75;;
21519;SDS011;10921;53.614;9.882;2023-06-26T14:33:08;13.65;;;12.30;;
21519;SDS011;10921;53.614;9.882;2023-06-26T14:35:34;13.65;;;12.27;;
21519;SDS011;10921;53.614;9.882;2023-06-26T14:38:01;13.50;;;12.20;;
21519;SDS011;10921;53.614;9.882;2023-06-26T14:40:28;18.83;;;12.13;;
21519;SDS011;10921;53.614;9.882;2023-06-26T14:42:55;12.73;;;11.52;;
21519;SDS011;10921;53.614;9.882;2023-06-26T14:45:22;13.00;;;11.70;;
21519;SDS011;10921;53.614;9.882;2023-06-26T14:47:49;12.80;;;11.68;;
21519;SDS011;10921;53.614;9.882;2023-06-26T14:50:15;12.65;;;11.55;;
21519;SDS011;10921;53.614;9.882;2023-06-26T14:52:42;13.05;;;11.38;;